sensor_id;sensor_type;location;lat;lon;timestamp;temperature;humidity
30288;DHT22;17103;48.316;11.558;2023-04-29T00:01:34;16.10;57.60
30288;DHT22;17103;48.316;11.558;2023-04-29T00:04:00;16.10;57.70
30288;DHT22;17103;48.316;11.558;2023-04-29T00:06:26;16.10;57.70
30288;DHT22;17103;48.316;11.558;2023-04-29T00:08:52;16.00;57.60
30288;DHT22;17103;48.316;11.558;2023-04-29T00:11:18;16.10;57.80
30288;DHT22;17103;48.316;11.558;2023-04-29T00:13:43;16.00;57.80
30288;DHT22;17103;48.316;11.558;2023-04-29T00:16:09;16.00;57.80
30288;DHT22;17103;48.316;11.558;2023-04-29T00:18:35;16.00;57.90
30288;DHT22;17103;48.316;11.558;2023-04-29T00:21:02;16.00;58.00
30288;DHT22;17103;48.316;11.558;2023-04-29T00:23:33;15.90;57.90
30288;DHT22;17103;48.316;11.558;2023-04-29T00:25:59;16.00;58.00
30288;DHT22;17103;48.316;11.558;2023-04-29T00:28:25;15.90;57.90
30288;DHT22;17103;48.316;11.558;2023-04-29T00:30:51;16.00;57.80
30288;DHT22;17103;48.316;11.558;2023-04-29T00:33:18;15.80;57.60
30288;DHT22;17103;48.316;11.558;2023-04-29T00:35:44;15.90;57.70
30288;DHT22;17103;48.316;11.558;2023-04-29T00:38:10;16.00;57.50
30288;DHT22;17103;48.316;11.558;2023-04-29T00:40:35;15.90;58.10
30288;DHT22;17103;48.316;11.558;2023-04-29T00:43:01;15.90;57.60
30288;DHT22;17103;48.316;11.558;2023-04-29T00:45:27;16.00;57.70
30288;DHT22;17103;48.316;11.558;2023-04-29T00:47:52;16.00;57.60
30288;DHT22;17103;48.316;11.558;2023-04-29T00:50:18;16.00;57.50
30288;DHT22;17103;48.316;11.558;2023-04-29T00:52:44;16.00;57.40
30288;DHT22;17103;48.316;11.558;2023-04-29T00:55:11;16.00;57.50
30288;DHT22;17103;48.316;11.558;2023-04-29T00:57:38;16.00;57.50
30288;DHT22;17103;48.316;11.558;2023-04-29T01:00:04;16.10;57.60
30288;DHT22;17103;48.316;11.558;2023-04-29T01:02:30;16.10;57.50
30288;DHT22;17103;48.316;11.558;2023-04-29T01:04:56;16.20;57.40
30288;DHT22;17103;48.316;11.558;2023-04-29T01:10:09;16.30;57.20
30288;DHT22;17103;48.316;11.558;2023-04-29T01:15:04;16.40;56.70
30288;DHT22;17103;48.316;11.558;2023-04-29T01:20:20;16.40;56.00
30288;DHT22;17103;48.316;11.558;2023-04-29T01:22:46;16.50;55.80
30288;DHT22;17103;48.316;11.558;2023-04-29T01:25:13;16.40;55.60
30288;DHT22;17103;48.316;11.558;2023-04-29T01:30:38;16.30;55.60
30288;DHT22;17103;48.316;11.558;2023-04-29T01:33:13;16.30;55.70
30288;DHT22;17103;48.316;11.558;2023-04-29T01:35:59;16.40;55.80
30288;DHT22;17103;48.316;11.558;2023-04-29T01:41:34;16.30;55.70
30288;DHT22;17103;48.316;11.558;2023-04-29T01:44:02;16.30;55.60
30288;DHT22;17103;48.316;11.558;2023-04-29T01:46:30;16.30;55.60
30288;DHT22;17103;48.316;11.558;2023-04-29T01:48:55;16.20;55.30
30288;DHT22;17103;48.316;11.558;2023-04-29T01:51:21;16.10;55.30
30288;DHT22;17103;48.316;11.558;2023-04-29T01:53:47;16.10;55.50
30288;DHT22;17103;48.316;11.558;2023-04-29T01:56:12;16.10;55.70
30288;DHT22;17103;48.316;11.558;2023-04-29T01:58:39;16.00;55.90
30288;DHT22;17103;48.316;11.558;2023-04-29T02:01:05;16.00;56.20
30288;DHT22;17103;48.316;11.558;2023-04-29T02:03:31;16.00;56.20
30288;DHT22;17103;48.316;11.558;2023-04-29T02:05:57;16.00;56.40
30288;DHT22;17103;48.316;11.558;2023-04-29T02:08:23;15.90;56.40
30288;DHT22;17103;48.316;11.558;2023-04-29T02:10:53;15.90;56.30
30288;DHT22;17103;48.316;11.558;2023-04-29T02:13:19;15.80;56.30
30288;DHT22;17103;48.316;11.558;2023-04-29T02:15:45;15.90;56.20
30288;DHT22;17103;48.316;11.558;2023-04-29T02:18:11;15.80;56.30
30288;DHT22;17103;48.316;11.558;2023-04-29T02:20:36;15.80;56.60
30288;DHT22;17103;48.316;11.558;2023-04-29T02:23:02;15.80;56.90
30288;DHT22;17103;48.316;11.558;2023-04-29T02:25:28;15.70;57.00
30288;DHT22;17103;48.316;11.558;2023-04-29T02:27:57;15.80;57.20
30288;DHT22;17103;48.316;11.558;2023-04-29T02:30:23;15.70;57.20
30288;DHT22;17103;48.316;11.558;2023-04-29T02:32:50;15.80;57.10
30288;DHT22;17103;48.316;11.558;2023-04-29T02:35:27;15.70;57.00
30288;DHT22;17103;48.316;11.558;2023-04-29T02:38:02;15.80;57.20
30288;DHT22;17103;48.316;11.558;2023-04-29T02:40:57;15.60;57.10
30288;DHT22;17103;48.316;11.558;2023-04-29T02:43:23;15.90;57.40
30288;DHT22;17103;48.316;11.558;2023-04-29T02:45:49;15.70;57.20
30288;DHT22;17103;48.316;11.558;2023-04-29T02:48:14;15.70;57.20
30288;DHT22;17103;48.316;11.558;2023-04-29T02:50:40;15.70;57.30
30288;DHT22;17103;48.316;11.558;2023-04-29T02:53:06;15.70;57.40
30288;DHT22;17103;48.316;11.558;2023-04-29T02:55:31;15.70;57.40
30288;DHT22;17103;48.316;11.558;2023-04-29T02:57:57;15.80;57.50
30288;DHT22;17103;48.316;11.558;2023-04-29T03:00:23;15.70;57.30
30288;DHT22;17103;48.316;11.558;2023-04-29T03:02:48;15.80;57.40
30288;DHT22;17103;48.316;11.558;2023-04-29T03:05:14;15.80;57.50
30288;DHT22;17103;48.316;11.558;2023-04-29T03:07:40;15.90;57.60
30288;DHT22;17103;48.316;11.558;2023-04-29T03:10:06;15.80;57.40
30288;DHT22;17103;48.316;11.558;2023-04-29T03:12:31;15.80;57.50
30288;DHT22;17103;48.316;11.558;2023-04-29T03:14:58;15.80;57.60
30288;DHT22;17103;48.316;11.558;2023-04-29T03:17:23;16.00;57.70
30288;DHT22;17103;48.316;11.558;2023-04-29T03:19:49;15.90;57.60
30288;DHT22;17103;48.316;11.558;2023-04-29T03:22:17;15.90;57.50
30288;DHT22;17103;48.316;11.558;2023-04-29T03:24:43;15.90;57.50
30288;DHT22;17103;48.316;11.558;2023-04-29T03:27:09;16.30;58.00
30288;DHT22;17103;48.316;11.558;2023-04-29T03:29:35;16.10;57.90
30288;DHT22;17103;48.316;11.558;2023-04-29T03:32:01;16.00;57.70
30288;DHT22;17103;48.316;11.558;2023-04-29T03:34:27;16.00;57.70
30288;DHT22;17103;48.316;11.558;2023-04-29T03:36:54;16.00;57.70
30288;DHT22;17103;48.316;11.558;2023-04-29T03:39:22;16.00;57.60
30288;DHT22;17103;48.316;11.558;2023-04-29T03:41:48;16.00;57.60
30288;DHT22;17103;48.316;11.558;2023-04-29T03:44:14;16.00;57.70
30288;DHT22;17103;48.316;11.558;2023-04-29T03:46:40;16.10;57.80
30288;DHT22;17103;48.316;11.558;2023-04-29T03:49:08;16.10;57.70
30288;DHT22;17103;48.316;11.558;2023-04-29T03:51:52;16.10;57.70
30288;DHT22;17103;48.316;11.558;2023-04-29T03:54:21;16.10;57.70
30288;DHT22;17103;48.316;11.558;2023-04-29T03:56:46;16.20;57.80
30288;DHT22;17103;48.316;11.558;2023-04-29T03:59:12;16.20;57.80
30288;DHT22;17103;48.316;11.558;2023-04-29T04:01:38;16.30;57.70
30288;DHT22;17103;48.316;11.558;2023-04-29T04:04:04;16.30;57.60
30288;DHT22;17103;48.316;11.558;2023-04-29T04:06:29;16.40;57.50
30288;DHT22;17103;48.316;11.558;2023-04-29T04:08:56;16.40;57.30
30288;DHT22;17103;48.316;11.558;2023-04-29T04:11:21;16.50;57.80
30288;DHT22;17103;48.316;11.558;2023-04-29T04:13:48;16.50;57.30
30288;DHT22;17103;48.316;11.558;2023-04-29T04:16:14;16.60;57.80
30288;DHT22;17103;48.316;11.558;2023-04-29T04:18:42;16.50;57.20
30288;DHT22;17103;48.316;11.558;2023-04-29T04:21:09;16.50;57.50
30288;DHT22;17103;48.316;11.558;2023-04-29T04:23:36;16.60;57.30
30288;DHT22;17103;48.316;11.558;2023-04-29T04:26:05;16.40;57.20
30288;DHT22;17103;48.316;11.558;2023-04-29T04:28:31;16.40;57.40
30288;DHT22;17103;48.316;11.558;2023-04-29T04:30:56;16.40;57.50
30288;DHT22;17103;48.316;11.558;2023-04-29T04:33:24;16.50;57.70
30288;DHT22;17103;48.316;11.558;2023-04-29T04:35:51;16.50;57.80
30288;DHT22;17103;48.316;11.558;2023-04-29T04:38:17;16.50;57.70
30288;DHT22;17103;48.316;11.558;2023-04-29T04:40:43;16.50;57.70
30288;DHT22;17103;48.316;11.558;2023-04-29T04:43:09;16.60;57.60
30288;DHT22;17103;48.316;11.558;2023-04-29T04:45:34;16.60;57.60
30288;DHT22;17103;48.316;11.558;2023-04-29T04:48:01;16.70;57.60
30288;DHT22;17103;48.316;11.558;2023-04-29T04:50:27;16.70;57.40
30288;DHT22;17103;48.316;11.558;2023-04-29T04:52:57;16.80;57.30
30288;DHT22;17103;48.316;11.558;2023-04-29T04:55:23;16.80;57.20
30288;DHT22;17103;48.316;11.558;2023-04-29T04:57:49;16.80;57.20
30288;DHT22;17103;48.316;11.558;2023-04-29T05:00:15;16.90;57.30
30288;DHT22;17103;48.316;11.558;2023-04-29T05:02:43;16.90;57.20
30288;DHT22;17103;48.316;11.558;2023-04-29T05:05:09;17.00;57.20
30288;DHT22;17103;48.316;11.558;2023-04-29T05:07:34;17.00;57.10
30288;DHT22;17103;48.316;11.558;2023-04-29T05:10:05;17.00;57.10
30288;DHT22;17103;48.316;11.558;2023-04-29T05:12:31;17.00;57.10
30288;DHT22;17103;48.316;11.558;2023-04-29T05:14:57;17.10;57.10
30288;DHT22;17103;48.316;11.558;2023-04-29T05:17:23;17.10;57.10
30288;DHT22;17103;48.316;11.558;2023-04-29T05:19:48;17.10;57.10
30288;DHT22;17103;48.316;11.558;2023-04-29T05:22:14;17.10;57.10
30288;DHT22;17103;48.316;11.558;2023-04-29T05:24:40;17.10;57.20
30288;DHT22;17103;48.316;11.558;2023-04-29T05:27:05;17.10;57.30
30288;DHT22;17103;48.316;11.558;2023-04-29T05:29:31;17.10;57.30
30288;DHT22;17103;48.316;11.558;2023-04-29T05:31:57;17.10;57.50
30288;DHT22;17103;48.316;11.558;2023-04-29T05:34:24;17.20;57.70
30288;DHT22;17103;48.316;11.558;2023-04-29T05:36:50;17.20;57.70
30288;DHT22;17103;48.316;11.558;2023-04-29T05:39:16;17.20;57.80
30288;DHT22;17103;48.316;11.558;2023-04-29T05:41:42;17.40;58.20
30288;DHT22;17103;48.316;11.558;2023-04-29T05:44:08;17.30;58.10
30288;DHT22;17103;48.316;11.558;2023-04-29T05:46:34;17.40;58.40
30288;DHT22;17103;48.316;11.558;2023-04-29T05:48:59;17.40;58.40
30288;DHT22;17103;48.316;11.558;2023-04-29T05:51:25;17.40;58.50
30288;DHT22;17103;48.316;11.558;2023-04-29T05:53:53;17.30;58.70
30288;DHT22;17103;48.316;11.558;2023-04-29T05:56:19;17.30;58.80
30288;DHT22;17103;48.316;11.558;2023-04-29T05:58:45;17.30;59.00
30288;DHT22;17103;48.316;11.558;2023-04-29T06:01:11;17.30;59.30
30288;DHT22;17103;48.316;11.558;2023-04-29T06:03:37;17.30;59.30
30288;DHT22;17103;48.316;11.558;2023-04-29T06:06:03;17.30;59.50
30288;DHT22;17103;48.316;11.558;2023-04-29T06:08:29;17.30;59.70
30288;DHT22;17103;48.316;11.558;2023-04-29T06:10:54;17.20;59.60
30288;DHT22;17103;48.316;11.558;2023-04-29T06:13:20;17.10;60.10
30288;DHT22;17103;48.316;11.558;2023-04-29T06:15:46;17.10;60.00
30288;DHT22;17103;48.316;11.558;2023-04-29T06:18:12;17.00;60.00
30288;DHT22;17103;48.316;11.558;2023-04-29T06:20:37;17.00;60.60
30288;DHT22;17103;48.316;11.558;2023-04-29T06:23:03;16.90;61.50
30288;DHT22;17103;48.316;11.558;2023-04-29T06:25:29;16.80;62.00
30288;DHT22;17103;48.316;11.558;2023-04-29T06:27:57;16.70;62.10
30288;DHT22;17103;48.316;11.558;2023-04-29T06:30:22;16.70;62.30
30288;DHT22;17103;48.316;11.558;2023-04-29T06:32:48;16.60;63.20
30288;DHT22;17103;48.316;11.558;2023-04-29T06:35:14;16.50;63.90
30288;DHT22;17103;48.316;11.558;2023-04-29T06:37:40;16.50;63.50
30288;DHT22;17103;48.316;11.558;2023-04-29T06:40:06;16.30;65.50
30288;DHT22;17103;48.316;11.558;2023-04-29T06:42:32;16.30;66.10
30288;DHT22;17103;48.316;11.558;2023-04-29T06:44:58;16.20;66.60
30288;DHT22;17103;48.316;11.558;2023-04-29T06:47:23;16.20;66.80
30288;DHT22;17103;48.316;11.558;2023-04-29T06:49:50;16.10;68.80
30288;DHT22;17103;48.316;11.558;2023-04-29T06:52:18;16.00;69.00
30288;DHT22;17103;48.316;11.558;2023-04-29T06:54:44;16.00;69.90
30288;DHT22;17103;48.316;11.558;2023-04-29T06:57:09;16.00;70.40
30288;DHT22;17103;48.316;11.558;2023-04-29T06:59:35;16.00;70.20
30288;DHT22;17103;48.316;11.558;2023-04-29T07:02:01;15.90;71.40
30288;DHT22;17103;48.316;11.558;2023-04-29T07:04:27;16.00;71.60
30288;DHT22;17103;48.316;11.558;2023-04-29T07:06:52;16.00;71.80
30288;DHT22;17103;48.316;11.558;2023-04-29T07:09:18;15.90;72.10
30288;DHT22;17103;48.316;11.558;2023-04-29T07:11:44;16.00;72.70
30288;DHT22;17103;48.316;11.558;2023-04-29T07:14:10;15.90;72.70
30288;DHT22;17103;48.316;11.558;2023-04-29T07:16:36;16.10;72.90
30288;DHT22;17103;48.316;11.558;2023-04-29T07:19:01;16.10;72.60
30288;DHT22;17103;48.316;11.558;2023-04-29T07:21:27;16.10;73.00
30288;DHT22;17103;48.316;11.558;2023-04-29T07:23:57;16.10;73.40
30288;DHT22;17103;48.316;11.558;2023-04-29T07:26:25;16.20;73.20
30288;DHT22;17103;48.316;11.558;2023-04-29T07:28:54;16.20;72.70
30288;DHT22;17103;48.316;11.558;2023-04-29T07:31:20;16.40;72.90
30288;DHT22;17103;48.316;11.558;2023-04-29T07:33:46;16.40;72.20
30288;DHT22;17103;48.316;11.558;2023-04-29T07:36:13;16.50;72.80
30288;DHT22;17103;48.316;11.558;2023-04-29T07:38:40;16.80;73.00
30288;DHT22;17103;48.316;11.558;2023-04-29T07:41:06;16.60;71.60
30288;DHT22;17103;48.316;11.558;2023-04-29T07:43:31;16.70;72.10
30288;DHT22;17103;48.316;11.558;2023-04-29T07:45:57;16.80;71.70
30288;DHT22;17103;48.316;11.558;2023-04-29T07:48:23;16.90;71.00
30288;DHT22;17103;48.316;11.558;2023-04-29T07:50:48;17.00;69.80
30288;DHT22;17103;48.316;11.558;2023-04-29T07:53:14;17.10;69.70
30288;DHT22;17103;48.316;11.558;2023-04-29T07:55:40;17.20;68.80
30288;DHT22;17103;48.316;11.558;2023-04-29T07:58:06;17.20;67.00
30288;DHT22;17103;48.316;11.558;2023-04-29T08:00:32;17.30;66.70
30288;DHT22;17103;48.316;11.558;2023-04-29T08:02:58;17.30;65.80
30288;DHT22;17103;48.316;11.558;2023-04-29T08:05:24;17.40;66.10
30288;DHT22;17103;48.316;11.558;2023-04-29T08:07:50;17.40;65.50
30288;DHT22;17103;48.316;11.558;2023-04-29T08:10:16;17.50;66.00
30288;DHT22;17103;48.316;11.558;2023-04-29T08:12:45;17.70;65.40
30288;DHT22;17103;48.316;11.558;2023-04-29T08:15:11;17.60;65.20
30288;DHT22;17103;48.316;11.558;2023-04-29T08:17:37;17.70;62.50
30288;DHT22;17103;48.316;11.558;2023-04-29T08:20:03;17.80;63.40
30288;DHT22;17103;48.316;11.558;2023-04-29T08:22:29;17.80;62.90
30288;DHT22;17103;48.316;11.558;2023-04-29T08:24:55;17.90;62.30
30288;DHT22;17103;48.316;11.558;2023-04-29T08:27:22;18.00;63.10
30288;DHT22;17103;48.316;11.558;2023-04-29T08:29:50;17.80;62.80
30288;DHT22;17103;48.316;11.558;2023-04-29T08:32:16;17.90;62.30
30288;DHT22;17103;48.316;11.558;2023-04-29T08:34:43;17.90;62.70
30288;DHT22;17103;48.316;11.558;2023-04-29T08:37:10;18.00;63.90
30288;DHT22;17103;48.316;11.558;2023-04-29T08:39:38;18.10;63.00
30288;DHT22;17103;48.316;11.558;2023-04-29T08:42:18;18.20;61.90
30288;DHT22;17103;48.316;11.558;2023-04-29T08:44:45;18.20;60.50
30288;DHT22;17103;48.316;11.558;2023-04-29T08:47:12;18.20;60.20
30288;DHT22;17103;48.316;11.558;2023-04-29T08:49:40;18.40;59.50
30288;DHT22;17103;48.316;11.558;2023-04-29T08:52:09;18.30;59.60
30288;DHT22;17103;48.316;11.558;2023-04-29T08:54:38;18.40;59.60
30288;DHT22;17103;48.316;11.558;2023-04-29T08:57:06;18.40;59.70
30288;DHT22;17103;48.316;11.558;2023-04-29T08:59:54;18.80;59.50
30288;DHT22;17103;48.316;11.558;2023-04-29T09:02:25;18.40;58.90
30288;DHT22;17103;48.316;11.558;2023-04-29T09:05:04;18.40;57.60
30288;DHT22;17103;48.316;11.558;2023-04-29T09:14:46;18.50;57.50
30288;DHT22;17103;48.316;11.558;2023-04-29T09:17:41;18.60;57.80
30288;DHT22;17103;48.316;11.558;2023-04-29T09:22:53;18.60;57.40
30288;DHT22;17103;48.316;11.558;2023-04-29T09:25:19;18.70;58.20
30288;DHT22;17103;48.316;11.558;2023-04-29T09:27:45;18.80;58.90
30288;DHT22;17103;48.316;11.558;2023-04-29T09:30:12;18.90;58.70
30288;DHT22;17103;48.316;11.558;2023-04-29T09:32:38;18.90;57.40
30288;DHT22;17103;48.316;11.558;2023-04-29T09:35:23;19.00;56.60
30288;DHT22;17103;48.316;11.558;2023-04-29T09:37:50;19.00;56.00
30288;DHT22;17103;48.316;11.558;2023-04-29T09:40:32;19.10;56.30
30288;DHT22;17103;48.316;11.558;2023-04-29T09:42:58;19.10;54.20
30288;DHT22;17103;48.316;11.558;2023-04-29T09:45:37;19.00;54.40
30288;DHT22;17103;48.316;11.558;2023-04-29T09:48:04;19.00;54.30
30288;DHT22;17103;48.316;11.558;2023-04-29T09:50:38;19.00;55.30
30288;DHT22;17103;48.316;11.558;2023-04-29T09:53:06;18.90;55.00
30288;DHT22;17103;48.316;11.558;2023-04-29T09:58:30;18.80;54.70
30288;DHT22;17103;48.316;11.558;2023-04-29T10:00:59;18.70;54.10
30288;DHT22;17103;48.316;11.558;2023-04-29T10:03:33;18.70;54.40
30288;DHT22;17103;48.316;11.558;2023-04-29T10:06:00;18.70;54.70
30288;DHT22;17103;48.316;11.558;2023-04-29T10:08:51;18.80;54.00
30288;DHT22;17103;48.316;11.558;2023-04-29T10:11:28;18.80;54.30
30288;DHT22;17103;48.316;11.558;2023-04-29T10:17:45;18.90;54.20
30288;DHT22;17103;48.316;11.558;2023-04-29T10:20:22;19.00;53.60
30288;DHT22;17103;48.316;11.558;2023-04-29T10:22:52;19.10;53.50
30288;DHT22;17103;48.316;11.558;2023-04-29T10:25:24;19.20;52.90
30288;DHT22;17103;48.316;11.558;2023-04-29T10:27:54;19.20;53.40
30288;DHT22;17103;48.316;11.558;2023-04-29T10:30:20;19.20;53.30
30288;DHT22;17103;48.316;11.558;2023-04-29T10:32:48;19.30;52.70
30288;DHT22;17103;48.316;11.558;2023-04-29T10:35:15;19.30;51.70
30288;DHT22;17103;48.316;11.558;2023-04-29T10:37:43;19.40;51.50
30288;DHT22;17103;48.316;11.558;2023-04-29T10:42:49;19.50;51.80
30288;DHT22;17103;48.316;11.558;2023-04-29T10:50:32;19.50;49.30
30288;DHT22;17103;48.316;11.558;2023-04-29T10:53:01;19.70;48.90
30288;DHT22;17103;48.316;11.558;2023-04-29T10:55:27;19.70;49.20
30288;DHT22;17103;48.316;11.558;2023-04-29T10:57:56;19.90;47.30
30288;DHT22;17103;48.316;11.558;2023-04-29T11:00:27;19.90;47.80
30288;DHT22;17103;48.316;11.558;2023-04-29T11:02:53;20.00;47.40
30288;DHT22;17103;48.316;11.558;2023-04-29T11:05:29;20.10;47.20
30288;DHT22;17103;48.316;11.558;2023-04-29T11:08:13;20.10;45.20
30288;DHT22;17103;48.316;11.558;2023-04-29T11:10:43;20.10;45.10
30288;DHT22;17103;48.316;11.558;2023-04-29T11:13:25;20.20;43.20
30288;DHT22;17103;48.316;11.558;2023-04-29T11:15:53;20.20;44.10
30288;DHT22;17103;48.316;11.558;2023-04-29T11:18:18;20.20;45.20
30288;DHT22;17103;48.316;11.558;2023-04-29T11:23:40;20.40;44.60
30288;DHT22;17103;48.316;11.558;2023-04-29T11:26:06;20.50;42.80
30288;DHT22;17103;48.316;11.558;2023-04-29T11:28:36;20.60;44.20
30288;DHT22;17103;48.316;11.558;2023-04-29T11:31:02;20.40;43.60
30288;DHT22;17103;48.316;11.558;2023-04-29T11:33:31;20.50;43.20
30288;DHT22;17103;48.316;11.558;2023-04-29T11:35:58;20.50;42.80
30288;DHT22;17103;48.316;11.558;2023-04-29T11:38:28;20.50;42.50
30288;DHT22;17103;48.316;11.558;2023-04-29T11:40:55;20.50;43.70
30288;DHT22;17103;48.316;11.558;2023-04-29T11:43:22;20.80;43.40
30288;DHT22;17103;48.316;11.558;2023-04-29T11:45:48;20.50;41.30
30288;DHT22;17103;48.316;11.558;2023-04-29T11:50:49;20.70;41.20
30288;DHT22;17103;48.316;11.558;2023-04-29T11:53:20;20.50;42.00
30288;DHT22;17103;48.316;11.558;2023-04-29T11:55:46;21.00;42.40
30288;DHT22;17103;48.316;11.558;2023-04-29T11:58:14;20.60;43.10
30288;DHT22;17103;48.316;11.558;2023-04-29T12:00:43;20.70;43.20
30288;DHT22;17103;48.316;11.558;2023-04-29T12:03:13;20.60;42.20
30288;DHT22;17103;48.316;11.558;2023-04-29T12:05:52;20.70;41.50
30288;DHT22;17103;48.316;11.558;2023-04-29T12:11:31;20.70;42.00
30288;DHT22;17103;48.316;11.558;2023-04-29T12:14:01;20.80;41.70
30288;DHT22;17103;48.316;11.558;2023-04-29T12:16:38;20.80;42.30
30288;DHT22;17103;48.316;11.558;2023-04-29T12:22:31;20.90;41.80
30288;DHT22;17103;48.316;11.558;2023-04-29T12:24:56;21.20;41.00
30288;DHT22;17103;48.316;11.558;2023-04-29T12:27:22;21.00;40.60
30288;DHT22;17103;48.316;11.558;2023-04-29T12:29:51;21.00;40.90
30288;DHT22;17103;48.316;11.558;2023-04-29T12:32:20;21.10;40.80
30288;DHT22;17103;48.316;11.558;2023-04-29T12:34:46;21.10;41.00
30288;DHT22;17103;48.316;11.558;2023-04-29T12:37:12;21.10;41.50
30288;DHT22;17103;48.316;11.558;2023-04-29T12:39:40;21.20;40.80
30288;DHT22;17103;48.316;11.558;2023-04-29T12:42:06;21.30;40.00
30288;DHT22;17103;48.316;11.558;2023-04-29T12:44:38;21.20;40.30
30288;DHT22;17103;48.316;11.558;2023-04-29T12:47:11;21.20;40.60
30288;DHT22;17103;48.316;11.558;2023-04-29T12:49:40;21.30;40.60
30288;DHT22;17103;48.316;11.558;2023-04-29T12:52:09;21.40;41.10
30288;DHT22;17103;48.316;11.558;2023-04-29T12:54:36;21.40;41.10
30288;DHT22;17103;48.316;11.558;2023-04-29T12:57:02;21.50;41.50
30288;DHT22;17103;48.316;11.558;2023-04-29T12:59:29;21.50;41.90
30288;DHT22;17103;48.316;11.558;2023-04-29T13:01:55;21.40;41.80
30288;DHT22;17103;48.316;11.558;2023-04-29T13:04:30;21.50;40.70
30288;DHT22;17103;48.316;11.558;2023-04-29T13:06:56;21.50;40.70
30288;DHT22;17103;48.316;11.558;2023-04-29T13:09:27;21.50;40.80
30288;DHT22;17103;48.316;11.558;2023-04-29T13:11:55;21.50;40.80
30288;DHT22;17103;48.316;11.558;2023-04-29T13:14:22;21.60;40.80
30288;DHT22;17103;48.316;11.558;2023-04-29T13:16:47;21.60;40.70
30288;DHT22;17103;48.316;11.558;2023-04-29T13:19:13;21.50;39.80
30288;DHT22;17103;48.316;11.558;2023-04-29T13:21:54;21.60;40.90
30288;DHT22;17103;48.316;11.558;2023-04-29T13:24:20;21.60;40.90
30288;DHT22;17103;48.316;11.558;2023-04-29T13:26:46;21.50;41.90
30288;DHT22;17103;48.316;11.558;2023-04-29T13:29:12;21.50;41.70
30288;DHT22;17103;48.316;11.558;2023-04-29T13:31:40;21.60;41.40
30288;DHT22;17103;48.316;11.558;2023-04-29T13:34:09;21.80;42.20
30288;DHT22;17103;48.316;11.558;2023-04-29T13:36:35;21.60;41.30
30288;DHT22;17103;48.316;11.558;2023-04-29T13:39:01;21.60;41.00
30288;DHT22;17103;48.316;11.558;2023-04-29T13:41:27;21.60;41.90
30288;DHT22;17103;48.316;11.558;2023-04-29T13:43:53;21.70;40.80
30288;DHT22;17103;48.316;11.558;2023-04-29T13:46:19;21.70;40.60
30288;DHT22;17103;48.316;11.558;2023-04-29T13:48:46;21.80;40.10
30288;DHT22;17103;48.316;11.558;2023-04-29T13:51:27;21.80;40.40
30288;DHT22;17103;48.316;11.558;2023-04-29T13:53:56;21.80;40.10
30288;DHT22;17103;48.316;11.558;2023-04-29T13:56:22;22.00;40.70
30288;DHT22;17103;48.316;11.558;2023-04-29T14:02:42;22.10;39.00
30288;DHT22;17103;48.316;11.558;2023-04-29T14:08:46;22.40;40.20
30288;DHT22;17103;48.316;11.558;2023-04-29T14:15:14;22.40;38.40
30288;DHT22;17103;48.316;11.558;2023-04-29T14:17:40;22.70;39.60
30288;DHT22;17103;48.316;11.558;2023-04-29T14:20:13;22.70;39.20
30288;DHT22;17103;48.316;11.558;2023-04-29T14:26:38;22.80;38.90
30288;DHT22;17103;48.316;11.558;2023-04-29T14:29:12;22.80;39.90
30288;DHT22;17103;48.316;11.558;2023-04-29T14:32:07;22.90;39.10
30288;DHT22;17103;48.316;11.558;2023-04-29T14:34:34;22.90;39.90
30288;DHT22;17103;48.316;11.558;2023-04-29T14:37:01;22.90;39.40
30288;DHT22;17103;48.316;11.558;2023-04-29T14:39:26;22.90;39.40
30288;DHT22;17103;48.316;11.558;2023-04-29T14:41:52;22.90;38.80
30288;DHT22;17103;48.316;11.558;2023-04-29T14:44:19;23.00;39.10
30288;DHT22;17103;48.316;11.558;2023-04-29T14:46:46;22.90;38.00
30288;DHT22;17103;48.316;11.558;2023-04-29T14:49:11;22.80;37.70
30288;DHT22;17103;48.316;11.558;2023-04-29T14:51:37;22.80;37.90
30288;DHT22;17103;48.316;11.558;2023-04-29T14:54:03;22.70;38.10
30288;DHT22;17103;48.316;11.558;2023-04-29T14:56:29;22.70;38.50
30288;DHT22;17103;48.316;11.558;2023-04-29T14:58:54;22.60;37.60
30288;DHT22;17103;48.316;11.558;2023-04-29T15:01:20;22.60;37.50
30288;DHT22;17103;48.316;11.558;2023-04-29T15:03:46;22.50;37.50
30288;DHT22;17103;48.316;11.558;2023-04-29T15:06:31;22.50;38.20
30288;DHT22;17103;48.316;11.558;2023-04-29T15:09:08;23.10;38.20
30288;DHT22;17103;48.316;11.558;2023-04-29T15:11:51;22.40;37.90
30288;DHT22;17103;48.316;11.558;2023-04-29T15:14:19;22.50;39.60
30288;DHT22;17103;48.316;11.558;2023-04-29T15:16:45;22.50;39.60
30288;DHT22;17103;48.316;11.558;2023-04-29T15:19:11;22.60;39.90
30288;DHT22;17103;48.316;11.558;2023-04-29T15:21:36;22.60;39.00
30288;DHT22;17103;48.316;11.558;2023-04-29T15:24:02;22.70;39.60
30288;DHT22;17103;48.316;11.558;2023-04-29T15:26:28;22.80;39.80
30288;DHT22;17103;48.316;11.558;2023-04-29T15:28:54;23.00;40.30
30288;DHT22;17103;48.316;11.558;2023-04-29T15:31:20;22.90;40.50
30288;DHT22;17103;48.316;11.558;2023-04-29T15:33:46;23.00;40.20
30288;DHT22;17103;48.316;11.558;2023-04-29T15:36:12;23.10;40.70
30288;DHT22;17103;48.316;11.558;2023-04-29T15:38:40;23.20;39.80
30288;DHT22;17103;48.316;11.558;2023-04-29T15:41:07;23.30;39.30
30288;DHT22;17103;48.316;11.558;2023-04-29T15:43:32;23.20;40.10
30288;DHT22;17103;48.316;11.558;2023-04-29T15:46:01;23.50;39.00
30288;DHT22;17103;48.316;11.558;2023-04-29T15:49:01;23.50;38.20
30288;DHT22;17103;48.316;11.558;2023-04-29T15:51:31;23.50;37.30
30288;DHT22;17103;48.316;11.558;2023-04-29T15:53:57;23.40;37.50
30288;DHT22;17103;48.316;11.558;2023-04-29T15:56:23;23.40;37.50
30288;DHT22;17103;48.316;11.558;2023-04-29T15:58:50;23.40;38.40
30288;DHT22;17103;48.316;11.558;2023-04-29T16:01:16;23.40;37.80
30288;DHT22;17103;48.316;11.558;2023-04-29T16:03:41;23.30;37.80
30288;DHT22;17103;48.316;11.558;2023-04-29T16:06:08;23.30;38.70
30288;DHT22;17103;48.316;11.558;2023-04-29T16:08:34;23.30;39.40
30288;DHT22;17103;48.316;11.558;2023-04-29T16:11:05;23.30;38.70
30288;DHT22;17103;48.316;11.558;2023-04-29T16:13:31;23.30;39.10
30288;DHT22;17103;48.316;11.558;2023-04-29T16:15:56;23.30;39.20
30288;DHT22;17103;48.316;11.558;2023-04-29T16:18:31;23.40;39.10
30288;DHT22;17103;48.316;11.558;2023-04-29T16:20:59;23.40;39.30
30288;DHT22;17103;48.316;11.558;2023-04-29T16:23:25;23.40;38.70
30288;DHT22;17103;48.316;11.558;2023-04-29T16:25:59;23.40;38.40